Time;durP1;ratioP1;P1;durP2;ratioP2;P2;SDS_P1;SDS_P2;PMS_P1;PMS_P2;Temp;Humidity;BMP_temperature;BMP_pressure;BME280_temperature;BME280_humidity;BME280_pressure;Samples;Min_cycle;Max_cycle;Signal;HPM_P1;HPM_P2
2023/01/21 00:02:13;;;;;;;1.50;1.38;;;15.20;58.10;;;;;;5042264;28;20029;-69
2023/01/21 00:04:39;;;;;;;2.28;1.80;;;15.30;57.90;;;;;;5042305;28;20116;-68
2023/01/21 00:07:06;;;;;;;1.27;1.15;;;15.30;57.80;;;;;;5042227;28;20029;-69
2023/01/21 00:09:33;;;;;;;1.90;1.45;;;15.30;57.70;;;;;;5041911;28;20053;-69
2023/01/21 00:12:01;;;;;;;1.90;1.67;;;15.30;58.30;;;;;;5041608;28;20029;-70
2023/01/21 00:14:28;;;;;;;1.52;1.33;;;15.30;57.70;;;;;;5042096;28;20273;-71
2023/01/21 00:16:54;;;;;;;2.30;1.70;;;15.20;57.70;;;;;;5042347;28;20030;-71
2023/01/21 00:19:20;;;;;;;1.92;1.33;;;15.10;57.70;;;;;;5041918;28;20075;-70
2023/01/21 00:21:46;;;;;;;1.90;1.60;;;15.10;57.80;;;;;;5041913;28;20017;-69
2023/01/21 00:24:11;;;;;;;1.88;1.45;;;15.10;57.90;;;;;;5041835;28;20021;-70
2023/01/21 00:26:37;;;;;;;1.67;1.55;;;15.00;58.00;;;;;;5041986;28;20081;-70
2023/01/21 00:29:03;;;;;;;2.42;1.67;;;15.00;58.00;;;;;;5041831;28;20026;-70
2023/01/21 00:31:29;;;;;;;1.98;1.50;;;15.00;58.10;;;;;;5041786;28;20032;-70
2023/01/21 00:33:54;;;;;;;2.25;1.80;;;14.90;58.10;;;;;;5041688;28;20037;-70
2023/01/21 00:36:23;;;;;;;2.30;1.70;;;14.90;58.20;;;;;;5041780;28;20032;-69
2023/01/21 00:38:49;;;;;;;1.65;1.35;;;14.80;58.10;;;;;;5057150;28;20120;-68
2023/01/21 00:41:16;;;;;;;2.30;1.60;;;14.80;58.20;;;;;;5041458;28;20379;-69
2023/01/21 00:43:42;;;;;;;2.00;1.73;;;14.80;58.10;;;;;;5041414;28;20067;-70
2023/01/21 00:46:09;;;;;;;1.67;1.42;;;14.80;58.20;;;;;;5041383;28;20056;-68
2023/01/21 00:48:35;;;;;;;2.13;1.58;;;14.70;58.20;;;;;;5041440;28;20080;-70
2023/01/21 00:51:01;;;;;;;1.63;1.40;;;14.70;58.40;;;;;;5041784;28;20035;-68
2023/01/21 00:53:29;;;;;;;2.25;1.33;;;14.70;58.40;;;;;;5041735;28;20041;-69
2023/01/21 00:56:01;;;;;;;1.85;1.50;;;14.80;58.50;;;;;;5041655;28;20344;-69
2023/01/21 00:58:27;;;;;;;2.28;1.55;;;14.90;58.50;;;;;;5041259;28;20083;-69
2023/01/21 01:01:08;;;;;;;1.98;1.60;;;15.00;58.50;;;;;;5041282;28;20030;-70
2023/01/21 01:03:35;;;;;;;1.70;1.50;;;15.10;58.30;;;;;;5041122;28;20051;-70
2023/01/21 01:06:21;;;;;;;1.70;1.52;;;15.20;58.10;;;;;;5041080;28;20021;-69
2023/01/21 01:08:48;;;;;;;1.33;1.23;;;15.20;57.90;;;;;;5041152;28;20028;-69
2023/01/21 01:11:15;;;;;;;1.50;1.40;;;15.20;57.80;;;;;;5040912;28;20045;-67
2023/01/21 01:13:42;;;;;;;1.35;1.23;;;15.20;57.70;;;;;;5040993;28;20037;-69
2023/01/21 01:16:09;;;;;;;1.40;1.30;;;15.30;57.70;;;;;;5040952;28;20028;-70
2023/01/21 01:18:36;;;;;;;1.50;1.40;;;15.20;57.60;;;;;;5040843;28;20228;-69
2023/01/21 01:21:03;;;;;;;1.77;1.20;;;15.20;57.60;;;;;;5039450;28;20026;-69
2023/01/21 01:23:29;;;;;;;2.00;1.50;;;15.10;57.70;;;;;;5039814;28;20093;-69
2023/01/21 01:26:04;;;;;;;1.95;1.35;;;15.10;57.80;;;;;;5040643;28;20067;-70
2023/01/21 01:28:31;;;;;;;1.40;1.10;;;15.00;57.90;;;;;;5040666;28;20029;-69
2023/01/21 01:30:58;;;;;;;2.58;1.27;;;15.00;57.90;;;;;;5040676;28;20029;-69
2023/01/21 01:33:24;;;;;;;2.30;1.55;;;15.00;58.00;;;;;;5040627;28;20033;-69
2023/01/21 01:35:51;;;;;;;1.88;1.60;;;15.00;58.00;;;;;;5040618;28;20051;-69
2023/01/21 01:38:19;;;;;;;2.22;1.58;;;14.90;57.90;;;;;;5040343;28;20033;-69
2023/01/21 01:40:46;;;;;;;1.92;1.60;;;14.90;57.90;;;;;;5040538;28;20321;-69
2023/01/21 01:43:19;;;;;;;1.60;1.13;;;14.80;58.00;;;;;;5039180;28;20289;-69
2023/01/21 01:45:47;;;;;;;1.92;1.67;;;14.80;58.10;;;;;;5040521;28;20029;-69
2023/01/21 01:48:27;;;;;;;1.95;1.55;;;14.80;58.10;;;;;;5040294;28;20048;-69
2023/01/21 01:50:56;;;;;;;2.47;1.98;;;14.80;58.10;;;;;;5040378;28;20032;-68
2023/01/21 01:53:23;;;;;;;1.40;1.30;;;14.70;58.00;;;;;;5040426;28;20025;-69
2023/01/21 01:55:51;;;;;;;1.48;1.25;;;14.70;58.20;;;;;;5040396;28;20097;-67
2023/01/21 01:58:19;;;;;;;1.63;1.52;;;14.70;58.10;;;;;;5040494;28;20033;-69
2023/01/21 02:00:45;;;;;;;2.17;1.30;;;14.80;58.40;;;;;;5040462;28;20082;-70
2023/01/21 02:05:56;;;;;;;1.52;1.27;;;14.90;58.50;;;;;;5040578;28;20082;-70
2023/01/21 02:08:23;;;;;;;1.50;1.30;;;14.90;58.40;;;;;;5040187;28;20026;-69
2023/01/21 02:10:49;;;;;;;2.10;1.50;;;15.00;58.30;;;;;;5039889;28;20056;-69
2023/01/21 02:13:16;;;;;;;3.28;1.90;;;15.10;58.20;;;;;;5040079;28;20030;-70
2023/01/21 02:16:22;;;;;;;2.53;1.40;;;15.20;58.10;;;;;;5040034;28;20033;-70
2023/01/21 02:19:02;;;;;;;2.05;1.50;;;15.20;57.80;;;;;;5019452;28;20048;-69
2023/01/21 02:22:03;;;;;;;1.42;1.30;;;15.30;57.80;;;;;;5040120;28;20024;-67
2023/01/21 02:24:57;;;;;;;2.22;1.48;;;15.30;57.70;;;;;;5039980;28;20068;-69
2023/01/21 02:27:47;;;;;;;2.20;1.40;;;15.20;57.60;;;;;;5040001;28;20031;-69
2023/01/21 02:30:51;;;;;;;1.80;1.60;;;15.20;57.50;;;;;;5039962;28;20089;-69
2023/01/21 02:33:51;;;;;;;2.05;1.30;;;15.10;57.70;;;;;;5040288;28;20033;-70
2023/01/21 02:36:42;;;;;;;1.90;1.60;;;15.10;57.90;;;;;;5059251;28;20025;-70
2023/01/21 02:39:10;;;;;;;1.55;1.42;;;15.00;57.90;;;;;;5044162;28;20240;-69
2023/01/21 02:42:13;;;;;;;1.63;1.30;;;15.00;57.90;;;;;;5043699;28;20025;-70
2023/01/21 02:44:53;;;;;;;1.58;1.38;;;14.90;57.90;;;;;;5043714;28;20025;-68
2023/01/21 02:47:37;;;;;;;1.98;1.48;;;14.90;58.00;;;;;;5043669;28;20033;-69
2023/01/21 02:50:13;;;;;;;2.10;1.90;;;14.90;58.30;;;;;;5043606;28;20072;-69
2023/01/21 02:52:39;;;;;;;1.65;1.55;;;14.80;58.10;;;;;;5043626;28;20025;-67
2023/01/21 02:55:11;;;;;;;1.90;1.55;;;14.80;58.00;;;;;;5043531;28;20059;-69
2023/01/21 02:58:06;;;;;;;1.73;1.58;;;14.80;58.00;;;;;;5043534;28;20017;-69
2023/01/21 03:01:02;;;;;;;2.13;1.65;;;14.70;58.10;;;;;;5042237;28;20425;-69
2023/01/21 03:03:38;;;;;;;1.42;1.33;;;14.70;58.20;;;;;;5043343;28;20085;-68
2023/01/21 03:06:31;;;;;;;1.92;1.67;;;14.70;58.20;;;;;;5043331;28;20029;-68
2023/01/21 03:09:26;;;;;;;1.38;1.27;;;14.70;58.40;;;;;;5043273;28;20029;-69
2023/01/21 03:12:48;;;;;;;2.08;1.40;;;14.80;58.50;;;;;;5033577;28;20321;-68
2023/01/21 03:18:17;;;;;;;2.60;1.83;;;15.10;58.30;;;;;;5042740;28;20060;-69
2023/01/21 03:21:05;;;;;;;1.92;1.35;;;15.10;58.10;;;;;;5043235;28;20092;-68
2023/01/21 03:23:37;;;;;;;1.83;1.40;;;15.20;57.90;;;;;;5042807;28;20025;-69
2023/01/21 03:26:07;;;;;;;2.30;1.70;;;15.20;57.80;;;;;;5042927;28;20036;-69
2023/01/21 03:28:38;;;;;;;1.55;1.23;;;15.30;57.70;;;;;;5043001;28;20053;-69
2023/01/21 03:31:13;;;;;;;1.88;1.52;;;15.30;57.50;;;;;;5043079;28;20033;-69
2023/01/21 03:33:44;;;;;;;1.92;1.33;;;15.30;57.60;;;;;;5043059;28;20043;-69
2023/01/21 03:36:25;;;;;;;1.80;1.30;;;15.20;57.60;;;;;;5042940;28;20029;-69
2023/01/21 03:38:54;;;;;;;2.30;1.60;;;15.10;57.60;;;;;;5042813;28;20264;-70
2023/01/21 03:41:27;;;;;;;1.40;1.10;;;15.10;57.70;;;;;;5042614;28;20297;-70
2023/01/21 03:43:53;;;;;;;1.83;1.17;;;15.00;57.80;;;;;;5042771;28;20025;-70
2023/01/21 03:46:31;;;;;;;1.67;1.33;;;15.00;57.90;;;;;;5041805;28;20028;-70
2023/01/21 03:49:05;;;;;;;1.88;1.70;;;15.00;57.80;;;;;;5042578;28;20045;-68
2023/01/21 03:51:39;;;;;;;2.15;1.50;;;15.00;57.90;;;;;;5042535;28;20014;-70
2023/01/21 03:54:05;;;;;;;3.15;2.13;;;14.90;57.90;;;;;;5042253;28;20528;-68
2023/01/21 03:56:30;;;;;;;2.03;1.48;;;14.90;57.90;;;;;;5042834;28;20040;-69
2023/01/21 03:58:56;;;;;;;1.90;1.58;;;14.90;58.00;;;;;;5042529;28;20045;-69
2023/01/21 04:01:22;;;;;;;2.00;1.42;;;14.80;58.00;;;;;;5042385;28;20080;-69
2023/01/21 04:03:48;;;;;;;1.85;1.38;;;14.70;57.80;;;;;;5042310;28;20063;-70
2023/01/21 04:06:16;;;;;;;2.35;1.90;;;14.80;58.10;;;;;;5042270;28;20029;-68
2023/01/21 04:08:43;;;;;;;2.17;1.88;;;14.70;58.10;;;;;;5042257;28;20317;-68
2023/01/21 04:11:09;;;;;;;2.47;1.45;;;14.70;58.20;;;;;;5041965;28;20253;-70
2023/01/21 04:13:35;;;;;;;2.08;1.30;;;14.70;58.20;;;;;;5042125;28;20385;-69
2023/01/21 04:16:01;;;;;;;2.17;1.58;;;14.80;58.40;;;;;;5042076;28;20098;-69
2023/01/21 04:18:27;;;;;;;2.13;1.55;;;14.80;58.30;;;;;;5042039;28;20080;-68
2023/01/21 04:20:53;;;;;;;1.83;1.33;;;14.90;58.30;;;;;;5041982;28;20317;-70
2023/01/21 04:23:19;;;;;;;2.50;1.80;;;15.00;58.10;;;;;;5041843;28;20032;-69
2023/01/21 04:25:48;;;;;;;2.00;1.60;;;15.00;58.00;;;;;;5041901;28;20033;-70
2023/01/21 04:28:14;;;;;;;2.60;1.60;;;15.10;57.80;;;;;;5041839;28;20341;-68
2023/01/21 04:30:40;;;;;;;2.30;1.70;;;15.10;57.70;;;;;;5041757;28;20017;-69
2023/01/21 04:33:06;;;;;;;1.67;1.52;;;15.20;57.50;;;;;;5041920;28;20051;-70
2023/01/21 04:35:35;;;;;;;2.08;1.60;;;15.20;57.40;;;;;;5041824;28;20013;-69
2023/01/21 04:38:01;;;;;;;3.15;1.95;;;15.20;57.30;;;;;;5041723;28;20017;-69
2023/01/21 04:40:27;;;;;;;2.00;1.50;;;15.30;57.30;;;;;;5041601;28;20109;-69
2023/01/21 04:42:52;;;;;;;2.30;1.58;;;15.30;57.30;;;;;;5041559;28;20021;-68
2023/01/21 04:45:18;;;;;;;2.10;1.42;;;15.30;57.10;;;;;;5041522;28;20029;-67
2023/01/21 04:47:45;;;;;;;2.55;1.77;;;15.20;57.20;;;;;;5041562;28;20204;-67
2023/01/21 04:50:12;;;;;;;2.03;1.30;;;15.20;57.30;;;;;;5040016;28;20040;-67
2023/01/21 04:52:38;;;;;;;1.75;1.38;;;15.10;57.30;;;;;;5041458;28;20021;-70
2023/01/21 04:55:05;;;;;;;1.20;1.02;;;15.10;57.50;;;;;;5041387;28;20080;-69
2023/01/21 04:57:31;;;;;;;2.10;1.42;;;15.10;57.70;;;;;;5041377;28;20347;-70
2023/01/21 04:59:56;;;;;;;1.88;1.50;;;15.00;57.80;;;;;;5041250;28;20033;-69
2023/01/21 05:02:22;;;;;;;2.00;1.50;;;15.00;58.00;;;;;;5041228;28;20063;-69
2023/01/21 05:04:48;;;;;;;1.80;1.60;;;14.90;58.00;;;;;;5041192;28;20124;-69
2023/01/21 05:07:14;;;;;;;2.05;1.77;;;14.90;58.00;;;;;;5041171;28;20075;-69
2023/01/21 05:09:40;;;;;;;1.80;1.40;;;14.90;58.00;;;;;;5040986;28;20057;-69
2023/01/21 05:12:07;;;;;;;1.58;1.48;;;14.90;57.90;;;;;;5040887;28;20029;-69
2023/01/21 05:14:32;;;;;;;1.63;1.40;;;14.80;58.00;;;;;;5040915;28;20028;-69
2023/01/21 05:16:58;;;;;;;1.52;1.42;;;14.90;58.00;;;;;;5040998;28;20048;-68
2023/01/21 05:19:24;;;;;;;1.60;1.50;;;14.80;58.00;;;;;;5040793;28;20345;-68
2023/01/21 05:21:50;;;;;;;2.40;1.88;;;14.80;58.00;;;;;;5040826;28;20116;-69
2023/01/21 05:24:16;;;;;;;1.88;1.70;;;14.80;58.00;;;;;;5040712;28;20033;-69
2023/01/21 05:26:42;;;;;;;1.52;1.42;;;14.80;58.10;;;;;;5039558;28;20536;-69
2023/01/21 05:29:08;;;;;;;2.13;1.55;;;14.70;58.10;;;;;;5039448;28;20336;-69
2023/01/21 05:31:33;;;;;;;1.80;1.52;;;14.70;58.10;;;;;;5040964;28;20095;-70
2023/01/21 05:33:59;;;;;;;2.65;1.40;;;14.80;58.20;;;;;;5040610;28;20240;-68
2023/01/21 05:36:25;;;;;;;1.40;1.30;;;14.80;58.30;;;;;;5040677;28;20344;-69
2023/01/21 05:38:51;;;;;;;2.08;1.67;;;14.90;58.20;;;;;;5040524;28;20096;-69
2023/01/21 05:41:17;;;;;;;1.52;1.42;;;15.00;58.10;;;;;;5040668;28;20217;-69
2023/01/21 05:43:43;;;;;;;2.00;1.80;;;15.10;57.90;;;;;;5040710;28;20317;-69
2023/01/21 05:46:09;;;;;;;2.00;1.60;;;15.10;57.70;;;;;;5040716;28;20021;-69
2023/01/21 05:48:36;;;;;;;1.23;1.08;;;15.20;57.60;;;;;;5040614;28;20052;-69
2023/01/21 05:51:01;;;;;;;2.28;1.55;;;15.20;57.50;;;;;;5040474;28;20034;-70
2023/01/21 05:53:27;;;;;;;1.73;1.42;;;15.20;57.40;;;;;;5040427;28;20363;-69
2023/01/21 05:55:55;;;;;;;2.30;1.58;;;15.30;57.40;;;;;;5040343;28;20267;-69
2023/01/21 05:58:21;;;;;;;2.33;1.75;;;15.30;57.30;;;;;;5040195;28;20017;-70
2023/01/21 06:00:47;;;;;;;1.73;1.20;;;15.30;57.10;;;;;;5040263;28;20026;-70
2023/01/21 06:03:15;;;;;;;1.50;1.30;;;15.30;57.20;;;;;;5040180;28;20041;-70
2023/01/21 06:05:41;;;;;;;2.03;1.50;;;15.20;57.10;;;;;;5040242;28;20013;-70
2023/01/21 06:08:09;;;;;;;1.45;1.30;;;15.20;57.10;;;;;;5041151;28;20044;-70
2023/01/21 06:10:35;;;;;;;1.65;1.27;;;15.10;57.30;;;;;;5046548;28;20064;-72
2023/01/21 06:13:01;;;;;;;1.77;1.33;;;15.10;57.30;;;;;;5046754;28;20020;-70
2023/01/21 06:15:27;;;;;;;1.77;1.35;;;15.00;57.40;;;;;;5046802;28;20275;-69
2023/01/21 06:17:54;;;;;;;1.63;1.50;;;15.00;57.50;;;;;;5046920;28;20043;-69
2023/01/21 06:20:20;;;;;;;2.88;1.73;;;14.90;58.20;;;;;;5046613;28;20044;-69
2023/01/21 06:22:46;;;;;;;1.80;1.40;;;14.90;57.80;;;;;;5046739;28;20013;-70
2023/01/21 06:25:12;;;;;;;1.75;1.38;;;14.90;57.90;;;;;;5046693;28;20254;-68
2023/01/21 06:27:37;;;;;;;2.97;1.90;;;14.90;58.00;;;;;;5046737;28;20086;-69
2023/01/21 06:30:09;;;;;;;2.17;1.67;;;14.80;58.00;;;;;;5046714;28;20036;-69
2023/01/21 06:32:34;;;;;;;1.85;1.38;;;14.90;58.00;;;;;;5046608;28;20036;-70
2023/01/21 06:35:00;;;;;;;1.52;1.35;;;14.80;58.00;;;;;;5046829;28;20240;-69
2023/01/21 06:37:26;;;;;;;1.75;1.65;;;14.80;58.00;;;;;;5046701;28;20335;-69
2023/01/21 06:39:53;;;;;;;1.73;1.60;;;14.80;58.00;;;;;;5046680;28;20057;-70
2023/01/21 06:42:19;;;;;;;2.03;1.60;;;14.80;58.00;;;;;;5046641;28;20246;-69
2023/01/21 06:44:46;;;;;;;2.05;1.88;;;14.80;58.10;;;;;;5046609;28;20056;-69
2023/01/21 06:47:12;;;;;;;2.17;1.42;;;14.80;58.00;;;;;;5046736;28;20022;-70
2023/01/21 06:49:38;;;;;;;1.90;1.70;;;14.80;58.10;;;;;;5046691;28;20026;-69
2023/01/21 06:52:05;;;;;;;1.40;1.30;;;14.80;58.20;;;;;;5046887;28;20053;-68
2023/01/21 06:54:31;;;;;;;1.65;1.50;;;14.90;58.20;;;;;;5047267;28;20025;-69
2023/01/21 06:56:57;;;;;;;1.60;1.50;;;14.90;58.20;;;;;;5046478;28;20339;-70
2023/01/21 06:59:22;;;;;;;1.27;1.17;;;15.00;58.10;;;;;;5046374;28;20029;-69
2023/01/21 07:01:48;;;;;;;3.35;2.03;;;15.10;57.80;;;;;;5046598;28;20033;-68
2023/01/21 07:04:14;;;;;;;2.05;1.63;;;15.10;57.70;;;;;;5046597;28;20087;-69
2023/01/21 07:06:40;;;;;;;2.58;1.45;;;15.20;57.50;;;;;;5046351;28;20029;-70
2023/01/21 07:09:07;;;;;;;1.85;1.58;;;15.20;57.50;;;;;;5046186;28;20030;-69
2023/01/21 07:11:33;;;;;;;2.72;1.80;;;15.20;57.30;;;;;;5046409;28;20097;-70
2023/01/21 07:13:59;;;;;;;2.38;1.73;;;15.30;57.20;;;;;;5046291;28;20029;-68
2023/01/21 07:16:25;;;;;;;1.98;1.60;;;15.30;57.20;;;;;;5046215;28;20113;-70
2023/01/21 07:18:51;;;;;;;1.50;1.40;;;15.30;57.20;;;;;;5046382;28;20052;-70
2023/01/21 07:21:18;;;;;;;1.65;1.55;;;15.40;57.10;;;;;;5042348;28;20029;-69
2023/01/21 07:23:45;;;;;;;1.48;1.35;;;15.40;57.00;;;;;;5043130;28;20132;-71
2023/01/21 07:26:11;;;;;;;2.25;1.33;;;15.30;57.00;;;;;;5042973;28;20009;-71
2023/01/21 07:28:37;;;;;;;2.80;1.83;;;15.30;57.10;;;;;;5043055;28;20040;-70
2023/01/21 07:31:04;;;;;;;2.10;1.70;;;15.20;57.10;;;;;;5042982;28;20272;-71
2023/01/21 07:33:29;;;;;;;1.50;1.35;;;15.20;57.30;;;;;;5042823;28;20233;-69
2023/01/21 07:35:55;;;;;;;2.20;1.73;;;15.10;57.30;;;;;;5042932;28;20025;-70
2023/01/21 07:38:21;;;;;;;2.08;1.50;;;15.10;57.50;;;;;;5042827;28;20031;-70
2023/01/21 07:40:50;;;;;;;1.40;1.17;;;15.00;57.50;;;;;;5042840;28;20037;-70
2023/01/21 07:43:16;;;;;;;1.73;1.38;;;15.00;57.50;;;;;;5042781;28;20440;-70
2023/01/21 07:45:42;;;;;;;2.20;1.70;;;15.00;57.60;;;;;;5042663;28;20075;-69
2023/01/21 07:48:09;;;;;;;1.90;1.60;;;14.90;57.60;;;;;;5042677;28;20021;-69
2023/01/21 07:50:36;;;;;;;2.05;1.70;;;14.90;57.80;;;;;;5042606;28;20053;-70
2023/01/21 07:53:03;;;;;;;2.60;1.65;;;14.90;57.80;;;;;;5042653;28;20309;-70
2023/01/21 07:55:29;;;;;;;2.30;1.58;;;14.80;57.90;;;;;;5042560;28;20036;-69
2023/01/21 07:57:56;;;;;;;2.28;1.48;;;14.90;57.90;;;;;;5042511;28;20088;-69
2023/01/21 08:00:23;;;;;;;2.38;1.80;;;14.90;58.00;;;;;;5042357;28;20439;-70
2023/01/21 08:02:56;;;;;;;1.80;1.55;;;14.90;58.00;;;;;;5042379;28;20535;-70
2023/01/21 08:05:23;;;;;;;1.83;1.38;;;14.90;58.00;;;;;;5042358;28;20029;-69
2023/01/21 08:07:49;;;;;;;2.20;1.63;;;14.80;57.90;;;;;;5042308;28;20084;-72
2023/01/21 08:10:16;;;;;;;2.22;1.52;;;14.80;57.80;;;;;;5042187;28;20057;-69
2023/01/21 08:12:42;;;;;;;1.90;1.55;;;14.80;58.50;;;;;;5042336;28;20124;-70
2023/01/21 08:15:09;;;;;;;2.20;1.88;;;14.90;57.90;;;;;;5042361;28;20362;-68
2023/01/21 08:17:38;;;;;;;1.80;1.40;;;14.90;58.00;;;;;;5042170;28;20060;-68
2023/01/21 08:20:06;;;;;;;2.15;1.77;;;15.00;58.10;;;;;;5042091;28;20037;-68
2023/01/21 08:22:32;;;;;;;1.40;1.30;;;15.00;57.80;;;;;;5041980;28;20021;-69
2023/01/21 08:24:57;;;;;;;2.40;1.63;;;15.10;57.70;;;;;;5041974;28;20405;-70
2023/01/21 08:27:23;;;;;;;1.60;1.50;;;15.20;57.50;;;;;;5041839;28;20079;-69
2023/01/21 08:29:49;;;;;;;2.10;1.83;;;15.30;57.40;;;;;;5041832;28;20321;-70
2023/01/21 08:32:15;;;;;;;1.80;1.40;;;15.30;57.30;;;;;;5041467;28;20223;-69
2023/01/21 08:34:41;;;;;;;1.95;1.50;;;15.30;57.10;;;;;;5041617;28;20040;-70
2023/01/21 08:37:07;;;;;;;2.13;1.70;;;15.40;57.00;;;;;;5041574;28;20029;-69
2023/01/21 08:39:32;;;;;;;2.40;1.67;;;15.40;56.90;;;;;;5041594;28;20022;-70
2023/01/21 08:41:58;;;;;;;2.00;1.48;;;15.40;56.90;;;;;;5041605;28;20030;-69
2023/01/21 08:44:24;;;;;;;1.88;1.67;;;15.30;56.90;;;;;;5041559;28;20021;-70
2023/01/21 08:46:50;;;;;;;3.00;1.88;;;15.30;56.90;;;;;;5041446;28;20355;-70
2023/01/21 08:49:16;;;;;;;2.53;1.48;;;15.20;57.00;;;;;;5041389;28;20377;-70
2023/01/21 08:51:41;;;;;;;1.98;1.45;;;15.20;57.10;;;;;;5041316;28;20057;-68
2023/01/21 08:54:08;;;;;;;2.10;1.50;;;15.20;57.20;;;;;;5041305;28;20036;-70
2023/01/21 08:56:34;;;;;;;2.58;1.50;;;15.10;57.20;;;;;;5041194;28;20103;-70
2023/01/21 08:59:01;;;;;;;1.42;1.33;;;15.10;57.30;;;;;;5041142;28;20029;-70
2023/01/21 09:01:28;;;;;;;2.63;1.55;;;15.00;57.40;;;;;;5041255;28;20021;-69
2023/01/21 09:03:59;;;;;;;1.45;1.35;;;15.00;57.40;;;;;;5041138;28;20045;-69
2023/01/21 09:06:26;;;;;;;2.35;1.77;;;15.00;57.50;;;;;;5041172;28;20017;-68
2023/01/21 09:08:53;;;;;;;2.35;1.73;;;15.00;57.40;;;;;;5040927;28;20029;-69
2023/01/21 09:11:19;;;;;;;1.52;1.40;;;14.90;57.60;;;;;;5041010;28;20435;-69
2023/01/21 09:13:45;;;;;;;2.10;1.70;;;14.90;57.60;;;;;;5039716;28;20037;-68
2023/01/21 09:16:16;;;;;;;2.72;1.75;;;14.90;57.60;;;;;;5040960;28;20525;-68
2023/01/21 09:18:42;;;;;;;1.75;1.33;;;14.90;57.60;;;;;;5040795;28;20033;-69
2023/01/21 09:21:10;;;;;;;1.98;1.70;;;15.00;57.60;;;;;;5040902;28;20028;-69
2023/01/21 09:23:37;;;;;;;1.85;1.45;;;14.90;57.50;;;;;;5040880;28;20358;-70
2023/01/21 09:26:08;;;;;;;2.05;1.40;;;15.00;57.60;;;;;;5040847;28;20025;-69
2023/01/21 09:28:41;;;;;;;2.42;2.13;;;15.00;57.70;;;;;;5040814;28;20532;-68
2023/01/21 09:31:10;;;;;;;3.08;1.70;;;14.90;57.50;;;;;;5040759;28;20312;-67
2023/01/21 09:33:40;;;;;;;1.67;1.40;;;15.00;57.80;;;;;;5040763;28;20056;-70
2023/01/21 09:36:07;;;;;;;2.10;1.60;;;15.00;57.60;;;;;;5041087;28;20067;-69
2023/01/21 09:38:34;;;;;;;3.72;2.30;;;15.10;57.60;;;;;;5040441;28;20053;-69
2023/01/21 09:41:26;;;;;;;1.58;1.42;;;15.20;57.40;;;;;;5040387;28;20578;-69
2023/01/21 09:44:04;;;;;;;1.95;1.50;;;15.30;57.20;;;;;;5039802;28;20048;-69
2023/01/21 09:46:54;;;;;;;1.85;1.45;;;15.40;57.00;;;;;;5040365;28;20415;-68
2023/01/21 09:49:27;;;;;;;1.70;1.60;;;15.50;56.80;;;;;;5040325;28;20215;-68
2023/01/21 09:52:19;;;;;;;1.75;1.50;;;15.60;56.40;;;;;;5040331;28;20079;-69
2023/01/21 09:54:45;;;;;;;1.75;1.58;;;15.70;56.10;;;;;;5040582;28;20033;-69
2023/01/21 09:57:13;;;;;;;1.75;1.38;;;15.70;55.90;;;;;;5055646;28;20229;-68
2023/01/21 09:59:42;;;;;;;;;;;15.70;55.90;;;;;;5040676;28;20037;-70
2023/01/21 10:02:33;;;;;;;2.03;1.40;;;15.60;55.80;;;;;;5040215;28;19909;-69
2023/01/21 10:05:31;;;;;;;2.08;1.63;;;15.60;56.00;;;;;;5040201;28;20324;-68
2023/01/21 10:08:11;;;;;;;1.85;1.73;;;15.50;56.30;;;;;;5026120;28;20101;-70
2023/01/21 10:10:50;;;;;;;2.15;1.70;;;15.40;56.30;;;;;;5040083;28;20072;-69
2023/01/21 10:13:52;;;;;;;2.25;1.65;;;15.40;56.60;;;;;;5040219;28;20026;-69
2023/01/21 10:16:41;;;;;;;3.03;1.80;;;15.30;56.70;;;;;;5040097;28;20067;-68
2023/01/21 10:19:18;;;;;;;2.15;1.33;;;15.20;56.80;;;;;;5040052;28;20033;-69
2023/01/21 10:21:59;;;;;;;2.47;1.70;;;15.20;56.90;;;;;;5040119;28;20053;-68
2023/01/21 10:25:03;;;;;;;2.83;1.83;;;15.20;56.90;;;;;;5040104;28;20338;-69
2023/01/21 10:27:34;;;;;;;2.35;1.55;;;15.10;57.00;;;;;;5040033;28;20025;-68
2023/01/21 10:30:19;;;;;;;1.52;1.42;;;15.10;57.10;;;;;;5040026;28;20101;-68
2023/01/21 10:32:48;;;;;;;1.98;1.60;;;15.10;57.20;;;;;;5039907;28;20198;-69
2023/01/21 10:35:19;;;;;;;2.00;1.50;;;15.10;57.20;;;;;;5040003;28;20026;-68
2023/01/21 10:37:52;;;;;;;1.45;1.35;;;15.10;57.20;;;;;;5039932;28;20225;-69
2023/01/21 10:40:41;;;;;;;2.35;1.65;;;15.10;57.30;;;;;;5040037;28;20049;-69
2023/01/21 10:43:30;;;;;;;1.70;1.50;;;15.10;57.40;;;;;;5040121;28;20202;-69
2023/01/21 10:46:20;;;;;;;2.35;1.67;;;15.20;57.40;;;;;;5039938;28;20083;-70
2023/01/21 10:49:00;;;;;;;1.95;1.55;;;15.30;57.20;;;;;;5040034;28;20025;-69
2023/01/21 10:51:36;;;;;;;1.98;1.40;;;15.40;57.10;;;;;;5039945;28;20316;-69
2023/01/21 10:54:22;;;;;;;2.28;1.65;;;15.50;56.90;;;;;;5040012;28;20029;-69
2023/01/21 10:56:57;;;;;;;2.20;1.23;;;15.60;56.60;;;;;;5043624;28;20028;-68
2023/01/21 10:59:28;;;;;;;1.50;1.40;;;15.60;56.40;;;;;;5043670;28;20400;-69
2023/01/21 11:02:23;;;;;;;1.73;1.50;;;15.60;56.20;;;;;;5043760;28;20026;-70
2023/01/21 11:04:50;;;;;;;1.55;1.42;;;15.60;56.10;;;;;;5042800;28;20033;-68
2023/01/21 11:07:20;;;;;;;1.88;1.65;;;15.60;56.20;;;;;;5043571;28;20055;-69
2023/01/21 11:09:47;;;;;;;2.30;1.80;;;15.60;56.30;;;;;;5043335;28;20337;-69
2023/01/21 11:12:17;;;;;;;2.65;1.90;;;15.50;56.40;;;;;;5043321;28;20025;-69
2023/01/21 11:15:11;;;;;;;1.98;1.80;;;15.50;56.50;;;;;;5043582;28;20089;-69
2023/01/21 11:17:40;;;;;;;2.92;1.83;;;15.40;56.60;;;;;;5038098;28;20044;-70
2023/01/21 11:20:26;;;;;;;;;;;15.30;56.70;;;;;;5043601;28;20066;-69
2023/01/21 11:22:52;;;;;;;2.28;1.48;;;15.30;56.80;;;;;;5042547;28;19901;-69
2023/01/21 11:25:25;;;;;;;2.40;1.75;;;15.30;56.90;;;;;;5041772;28;20026;-68
2023/01/21 11:27:51;;;;;;;2.08;1.85;;;15.20;56.90;;;;;;5042945;28;20028;-69
2023/01/21 11:30:39;;;;;;;1.55;1.42;;;15.20;57.00;;;;;;5058362;28;20112;-69
2023/01/21 11:33:35;;;;;;;1.35;1.25;;;15.20;57.10;;;;;;5042971;28;20095;-68
2023/01/21 11:36:15;;;;;;;2.47;1.60;;;15.10;57.10;;;;;;5034335;28;20427;-68
2023/01/21 11:38:42;;;;;;;2.17;1.52;;;15.10;57.10;;;;;;5042768;28;20315;-68
2023/01/21 11:41:11;;;;;;;1.77;1.48;;;15.10;57.30;;;;;;5042783;28;20029;-68
2023/01/21 11:43:47;;;;;;;;;;;15.00;57.20;;;;;;5043151;28;20056;-69
2023/01/21 11:46:27;;;;;;;2.00;1.85;;;15.00;57.30;;;;;;5042637;28;19931;-70
2023/01/21 11:49:18;;;;;;;3.55;1.63;;;15.10;57.50;;;;;;5042668;28;20029;-68
2023/01/21 11:51:45;;;;;;;3.08;2.13;;;15.10;57.30;;;;;;5037492;28;20029;-69
2023/01/21 11:54:21;;;;;;;2.10;1.75;;;15.20;57.20;;;;;;5042644;28;20101;-69
2023/01/21 11:57:02;;;;;;;3.35;1.90;;;15.30;57.10;;;;;;5041355;28;20228;-70
2023/01/21 11:59:46;;;;;;;2.17;1.60;;;15.40;56.90;;;;;;5042400;28;20037;-67
2023/01/21 12:02:22;;;;;;;2.33;1.67;;;15.50;56.70;;;;;;5042399;28;20036;-69
2023/01/21 12:04:53;;;;;;;1.83;1.35;;;15.50;56.50;;;;;;5042557;28;20022;-68
2023/01/21 12:07:24;;;;;;;2.40;1.67;;;15.50;56.30;;;;;;5040254;28;20059;-69
2023/01/21 12:10:13;;;;;;;2.67;1.90;;;15.60;56.20;;;;;;5042104;28;20108;-68
2023/01/21 12:13:12;;;;;;;2.75;1.90;;;15.60;56.10;;;;;;5033812;28;20034;-69
2023/01/21 12:16:09;;;;;;;2.88;2.15;;;15.60;56.00;;;;;;5042205;28;20021;-70
2023/01/21 12:19:05;;;;;;;2.22;1.90;;;15.60;56.20;;;;;;5042127;28;20068;-69
2023/01/21 12:21:50;;;;;;;2.85;1.73;;;15.50;56.30;;;;;;5005533;28;20101;-68
2023/01/21 12:24:36;;;;;;;1.42;1.27;;;15.40;56.40;;;;;;5041943;28;20081;-69
2023/01/21 12:27:20;;;;;;;2.38;1.75;;;15.40;56.60;;;;;;5041876;28;20408;-69
2023/01/21 12:30:09;;;;;;;2.30;1.88;;;15.30;56.70;;;;;;5041837;28;20052;-69
2023/01/21 12:32:42;;;;;;;3.38;2.10;;;15.30;56.80;;;;;;5020663;28;20037;-69
2023/01/21 12:35:15;;;;;;;2.20;1.95;;;15.20;56.80;;;;;;5040406;28;20017;-69
2023/01/21 12:38:01;;;;;;;2.30;2.00;;;15.30;56.90;;;;;;5041672;28;20341;-69
2023/01/21 12:40:55;;;;;;;2.40;1.63;;;15.30;56.90;;;;;;5041542;28;20033;-69
2023/01/21 12:43:31;;;;;;;2.75;1.88;;;15.30;56.90;;;;;;5036938;28;20041;-69
2023/01/21 12:46:10;;;;;;;1.55;1.42;;;15.30;56.90;;;;;;5041581;28;20021;-68
2023/01/21 12:48:46;;;;;;;2.13;1.48;;;15.30;56.90;;;;;;5041544;28;20321;-69
2023/01/21 12:51:28;;;;;;;3.00;1.95;;;15.30;56.90;;;;;;5041530;28;20424;-69
2023/01/21 12:54:33;;;;;;;1.85;1.50;;;15.20;56.80;;;;;;5041543;28;20021;-68
2023/01/21 12:57:27;;;;;;;2.55;1.50;;;15.20;56.90;;;;;;5035106;28;20337;-68
2023/01/21 13:00:01;;;;;;;1.77;1.67;;;15.20;56.80;;;;;;5041386;28;20036;-68
2023/01/21 13:02:50;;;;;;;1.85;1.55;;;15.20;56.80;;;;;;5041367;28;20029;-70
2023/01/21 13:05:35;;;;;;;2.40;1.90;;;15.10;56.90;;;;;;5041256;28;20009;-69
2023/01/21 13:08:17;;;;;;;2.63;1.80;;;15.10;56.90;;;;;;5041313;28;20017;-69
2023/01/21 13:11:19;;;;;;;2.53;1.83;;;15.20;57.10;;;;;;5041133;28;20155;-69
2023/01/21 13:13:59;;;;;;;1.60;1.48;;;15.20;57.10;;;;;;5040774;28;20059;-68
2023/01/21 13:16:26;;;;;;;2.35;1.65;;;15.30;57.00;;;;;;5041225;28;20033;-69
2023/01/21 13:18:53;;;;;;;1.90;1.70;;;15.40;56.70;;;;;;5039989;28;20025;-68
2023/01/21 13:21:42;;;;;;;2.80;1.77;;;15.50;56.60;;;;;;5039665;28;20032;-68